sensor_id;sensor_type;location;lat;lon;timestamp;temperature;humidity
25918;DHT22;13899;51.174;4.456;2022-08-25T00:01:36;25.10;99.90
25918;DHT22;13899;51.174;4.456;2022-08-25T00:04:05;25.10;99.90
25918;DHT22;13899;51.174;4.456;2022-08-25T00:06:31;25.00;99.90
25918;DHT22;13899;51.174;4.456;2022-08-25T00:08:57;25.00;99.90
25918;DHT22;13899;51.174;4.456;2022-08-25T00:11:29;25.00;99.90
25918;DHT22;13899;51.174;4.456;2022-08-25T00:14:02;25.00;99.90
25918;DHT22;13899;51.174;4.456;2022-08-25T00:16:28;25.00;99.90
25918;DHT22;13899;51.174;4.456;2022-08-25T00:18:59;25.00;99.90
25918;DHT22;13899;51.174;4.456;2022-08-25T00:21:25;25.00;99.90
25918;DHT22;13899;51.174;4.456;2022-08-25T00:23:52;24.70;99.90
25918;DHT22;13899;51.174;4.456;2022-08-25T00:26:18;25.00;99.90
25918;DHT22;13899;51.174;4.456;2022-08-25T00:28:45;24.80;99.90
25918;DHT22;13899;51.174;4.456;2022-08-25T00:31:16;24.70;99.90
25918;DHT22;13899;51.174;4.456;2022-08-25T00:33:46;24.70;99.90
25918;DHT22;13899;51.174;4.456;2022-08-25T00:36:12;24.60;99.90
25918;DHT22;13899;51.174;4.456;2022-08-25T00:38:43;24.50;99.90
25918;DHT22;13899;51.174;4.456;2022-08-25T00:41:11;24.30;99.90
25918;DHT22;13899;51.174;4.456;2022-08-25T00:46:10;24.40;99.90
25918;DHT22;13899;51.174;4.456;2022-08-25T00:48:38;24.30;99.90
25918;DHT22;13899;51.174;4.456;2022-08-25T00:51:06;24.10;99.90
25918;DHT22;13899;51.174;4.456;2022-08-25T00:53:34;24.30;99.90
25918;DHT22;13899;51.174;4.456;2022-08-25T00:56:00;24.30;99.90
25918;DHT22;13899;51.174;4.456;2022-08-25T00:58:28;24.40;99.90
25918;DHT22;13899;51.174;4.456;2022-08-25T01:00:56;24.20;99.90
25918;DHT22;13899;51.174;4.456;2022-08-25T01:03:24;24.30;99.90
25918;DHT22;13899;51.174;4.456;2022-08-25T01:05:51;24.30;99.90
25918;DHT22;13899;51.174;4.456;2022-08-25T01:08:18;24.30;99.90
25918;DHT22;13899;51.174;4.456;2022-08-25T01:10:48;24.30;99.90
25918;DHT22;13899;51.174;4.456;2022-08-25T01:13:19;24.30;99.90
25918;DHT22;13899;51.174;4.456;2022-08-25T01:15:49;24.20;99.90
25918;DHT22;13899;51.174;4.456;2022-08-25T01:18:17;24.20;99.90
25918;DHT22;13899;51.174;4.456;2022-08-25T01:23:09;24.20;99.90
25918;DHT22;13899;51.174;4.456;2022-08-25T01:25:50;24.20;99.90
25918;DHT22;13899;51.174;4.456;2022-08-25T01:28:18;24.20;99.90
25918;DHT22;13899;51.174;4.456;2022-08-25T01:30:44;24.10;99.90
25918;DHT22;13899;51.174;4.456;2022-08-25T01:33:11;24.10;99.90
25918;DHT22;13899;51.174;4.456;2022-08-25T01:35:37;24.20;99.90
25918;DHT22;13899;51.174;4.456;2022-08-25T01:38:05;24.10;99.90
25918;DHT22;13899;51.174;4.456;2022-08-25T01:40:31;24.00;99.90
25918;DHT22;13899;51.174;4.456;2022-08-25T01:43:15;23.90;99.90
25918;DHT22;13899;51.174;4.456;2022-08-25T01:45:45;23.90;99.90
25918;DHT22;13899;51.174;4.456;2022-08-25T01:48:12;23.90;99.90
25918;DHT22;13899;51.174;4.456;2022-08-25T01:50:38;23.90;99.90
25918;DHT22;13899;51.174;4.456;2022-08-25T01:53:30;23.90;99.90
25918;DHT22;13899;51.174;4.456;2022-08-25T01:55:56;23.90;99.90
25918;DHT22;13899;51.174;4.456;2022-08-25T01:58:34;23.80;99.90
25918;DHT22;13899;51.174;4.456;2022-08-25T02:01:02;23.80;99.90
25918;DHT22;13899;51.174;4.456;2022-08-25T02:03:29;23.80;99.90
25918;DHT22;13899;51.174;4.456;2022-08-25T02:05:56;23.80;99.90
25918;DHT22;13899;51.174;4.456;2022-08-25T02:08:23;23.80;99.90
25918;DHT22;13899;51.174;4.456;2022-08-25T02:10:50;23.70;99.90
25918;DHT22;13899;51.174;4.456;2022-08-25T02:13:16;23.70;99.90
25918;DHT22;13899;51.174;4.456;2022-08-25T02:15:44;23.70;99.90
25918;DHT22;13899;51.174;4.456;2022-08-25T02:18:11;23.70;99.90
25918;DHT22;13899;51.174;4.456;2022-08-25T02:20:38;23.70;99.90
25918;DHT22;13899;51.174;4.456;2022-08-25T02:23:04;23.60;99.90
25918;DHT22;13899;51.174;4.456;2022-08-25T02:25:30;23.60;99.90
25918;DHT22;13899;51.174;4.456;2022-08-25T02:27:56;23.40;99.90
25918;DHT22;13899;51.174;4.456;2022-08-25T02:30:22;23.40;99.90
25918;DHT22;13899;51.174;4.456;2022-08-25T02:32:48;23.40;99.90
25918;DHT22;13899;51.174;4.456;2022-08-25T02:35:14;23.30;99.90
25918;DHT22;13899;51.174;4.456;2022-08-25T02:37:40;23.30;99.90
25918;DHT22;13899;51.174;4.456;2022-08-25T02:40:06;23.30;99.90
25918;DHT22;13899;51.174;4.456;2022-08-25T02:42:32;23.10;99.90
25918;DHT22;13899;51.174;4.456;2022-08-25T02:44:58;23.20;99.90
25918;DHT22;13899;51.174;4.456;2022-08-25T02:47:23;23.20;99.90
25918;DHT22;13899;51.174;4.456;2022-08-25T02:49:49;23.20;99.90
25918;DHT22;13899;51.174;4.456;2022-08-25T02:52:15;23.20;99.90
25918;DHT22;13899;51.174;4.456;2022-08-25T02:54:41;23.20;99.90
25918;DHT22;13899;51.174;4.456;2022-08-25T02:57:07;23.10;99.90
25918;DHT22;13899;51.174;4.456;2022-08-25T02:59:34;23.10;99.90
25918;DHT22;13899;51.174;4.456;2022-08-25T03:02:00;23.00;99.90
25918;DHT22;13899;51.174;4.456;2022-08-25T03:04:26;23.00;99.90
25918;DHT22;13899;51.174;4.456;2022-08-25T03:06:52;23.00;99.90
25918;DHT22;13899;51.174;4.456;2022-08-25T03:09:18;23.00;99.90
25918;DHT22;13899;51.174;4.456;2022-08-25T03:11:44;23.00;99.90
25918;DHT22;13899;51.174;4.456;2022-08-25T03:14:11;22.90;99.90
25918;DHT22;13899;51.174;4.456;2022-08-25T03:16:37;23.00;99.90
25918;DHT22;13899;51.174;4.456;2022-08-25T03:19:03;22.90;99.90
25918;DHT22;13899;51.174;4.456;2022-08-25T03:21:29;22.70;99.90
25918;DHT22;13899;51.174;4.456;2022-08-25T03:23:56;22.80;99.90
25918;DHT22;13899;51.174;4.456;2022-08-25T03:26:22;22.60;99.90
25918;DHT22;13899;51.174;4.456;2022-08-25T03:29:06;22.70;99.90
25918;DHT22;13899;51.174;4.456;2022-08-25T03:31:33;22.70;99.90
25918;DHT22;13899;51.174;4.456;2022-08-25T03:34:00;22.70;99.90
25918;DHT22;13899;51.174;4.456;2022-08-25T03:36:26;22.50;99.90
25918;DHT22;13899;51.174;4.456;2022-08-25T03:38:52;22.20;99.90
25918;DHT22;13899;51.174;4.456;2022-08-25T03:41:20;22.30;99.90
25918;DHT22;13899;51.174;4.456;2022-08-25T03:43:47;22.30;99.90
25918;DHT22;13899;51.174;4.456;2022-08-25T03:46:20;22.50;99.90
25918;DHT22;13899;51.174;4.456;2022-08-25T03:48:47;22.20;99.90
25918;DHT22;13899;51.174;4.456;2022-08-25T03:51:25;22.10;99.90
25918;DHT22;13899;51.174;4.456;2022-08-25T03:53:52;22.10;99.90
25918;DHT22;13899;51.174;4.456;2022-08-25T03:56:18;22.00;99.90
25918;DHT22;13899;51.174;4.456;2022-08-25T03:58:44;21.80;99.90
25918;DHT22;13899;51.174;4.456;2022-08-25T04:01:10;21.70;99.90
25918;DHT22;13899;51.174;4.456;2022-08-25T04:03:36;21.80;99.90
25918;DHT22;13899;51.174;4.456;2022-08-25T04:06:04;22.00;99.90
25918;DHT22;13899;51.174;4.456;2022-08-25T04:08:30;21.80;99.90
25918;DHT22;13899;51.174;4.456;2022-08-25T04:10:56;21.70;99.90
25918;DHT22;13899;51.174;4.456;2022-08-25T04:13:22;21.90;99.90
25918;DHT22;13899;51.174;4.456;2022-08-25T04:15:48;22.00;99.90
25918;DHT22;13899;51.174;4.456;2022-08-25T04:18:14;21.90;99.90
25918;DHT22;13899;51.174;4.456;2022-08-25T04:20:40;21.70;99.90
25918;DHT22;13899;51.174;4.456;2022-08-25T04:23:07;21.70;99.90
25918;DHT22;13899;51.174;4.456;2022-08-25T04:25:33;21.80;99.90
25918;DHT22;13899;51.174;4.456;2022-08-25T04:27:59;21.80;99.90
25918;DHT22;13899;51.174;4.456;2022-08-25T04:30:24;21.80;99.90
25918;DHT22;13899;51.174;4.456;2022-08-25T04:32:50;22.00;99.90
25918;DHT22;13899;51.174;4.456;2022-08-25T04:35:15;21.80;99.90
25918;DHT22;13899;51.174;4.456;2022-08-25T04:37:41;21.60;99.90
25918;DHT22;13899;51.174;4.456;2022-08-25T04:40:07;21.50;99.90
25918;DHT22;13899;51.174;4.456;2022-08-25T04:42:34;21.70;99.90
25918;DHT22;13899;51.174;4.456;2022-08-25T04:45:00;21.90;99.90
25918;DHT22;13899;51.174;4.456;2022-08-25T04:47:27;22.10;99.90
25918;DHT22;13899;51.174;4.456;2022-08-25T04:49:52;21.90;99.90
25918;DHT22;13899;51.174;4.456;2022-08-25T04:52:18;22.10;99.90
25918;DHT22;13899;51.174;4.456;2022-08-25T04:54:45;22.10;99.90
25918;DHT22;13899;51.174;4.456;2022-08-25T04:57:11;22.20;99.90
25918;DHT22;13899;51.174;4.456;2022-08-25T04:59:37;22.30;99.90
25918;DHT22;13899;51.174;4.456;2022-08-25T05:02:03;22.30;99.90
25918;DHT22;13899;51.174;4.456;2022-08-25T05:04:31;22.30;99.90
25918;DHT22;13899;51.174;4.456;2022-08-25T05:06:57;22.30;99.90
25918;DHT22;13899;51.174;4.456;2022-08-25T05:09:24;22.20;99.90
25918;DHT22;13899;51.174;4.456;2022-08-25T05:11:50;22.20;99.90
25918;DHT22;13899;51.174;4.456;2022-08-25T05:14:16;22.30;99.90
25918;DHT22;13899;51.174;4.456;2022-08-25T05:16:45;22.40;99.90
25918;DHT22;13899;51.174;4.456;2022-08-25T05:19:11;22.30;99.90
25918;DHT22;13899;51.174;4.456;2022-08-25T05:21:38;22.30;99.90
25918;DHT22;13899;51.174;4.456;2022-08-25T05:24:04;22.30;99.90
25918;DHT22;13899;51.174;4.456;2022-08-25T05:26:33;22.30;99.90
25918;DHT22;13899;51.174;4.456;2022-08-25T05:29:01;22.30;99.90
25918;DHT22;13899;51.174;4.456;2022-08-25T05:31:30;22.40;99.90
25918;DHT22;13899;51.174;4.456;2022-08-25T05:33:56;22.40;99.90
25918;DHT22;13899;51.174;4.456;2022-08-25T05:36:25;22.10;99.90
25918;DHT22;13899;51.174;4.456;2022-08-25T05:38:52;22.20;99.90
25918;DHT22;13899;51.174;4.456;2022-08-25T05:41:20;22.30;99.90
25918;DHT22;13899;51.174;4.456;2022-08-25T05:43:47;22.50;99.90
25918;DHT22;13899;51.174;4.456;2022-08-25T05:46:14;22.50;99.90
25918;DHT22;13899;51.174;4.456;2022-08-25T05:48:40;22.40;99.90
25918;DHT22;13899;51.174;4.456;2022-08-25T05:51:08;22.60;99.90
25918;DHT22;13899;51.174;4.456;2022-08-25T05:53:42;22.40;99.90
25918;DHT22;13899;51.174;4.456;2022-08-25T05:56:09;22.30;99.90
25918;DHT22;13899;51.174;4.456;2022-08-25T05:58:35;22.30;99.90
25918;DHT22;13899;51.174;4.456;2022-08-25T06:01:01;22.30;99.90
25918;DHT22;13899;51.174;4.456;2022-08-25T06:03:48;22.20;99.90
25918;DHT22;13899;51.174;4.456;2022-08-25T06:06:14;22.30;99.90
25918;DHT22;13899;51.174;4.456;2022-08-25T06:08:41;22.30;99.90
25918;DHT22;13899;51.174;4.456;2022-08-25T06:11:07;22.60;99.90
25918;DHT22;13899;51.174;4.456;2022-08-25T06:13:32;22.50;99.90
25918;DHT22;13899;51.174;4.456;2022-08-25T06:15:59;22.60;99.90
25918;DHT22;13899;51.174;4.456;2022-08-25T06:18:25;22.70;99.90
25918;DHT22;13899;51.174;4.456;2022-08-25T06:20:51;22.80;99.90
25918;DHT22;13899;51.174;4.456;2022-08-25T06:23:18;23.00;99.90
25918;DHT22;13899;51.174;4.456;2022-08-25T06:25:51;22.60;99.90
25918;DHT22;13899;51.174;4.456;2022-08-25T06:28:18;22.70;99.90
25918;DHT22;13899;51.174;4.456;2022-08-25T06:30:44;22.80;99.90
25918;DHT22;13899;51.174;4.456;2022-08-25T06:33:10;23.00;99.90
25918;DHT22;13899;51.174;4.456;2022-08-25T06:35:36;23.10;99.90
25918;DHT22;13899;51.174;4.456;2022-08-25T06:38:02;23.10;99.90
25918;DHT22;13899;51.174;4.456;2022-08-25T06:40:28;23.30;99.90
25918;DHT22;13899;51.174;4.456;2022-08-25T06:42:53;23.40;99.90
25918;DHT22;13899;51.174;4.456;2022-08-25T06:45:19;23.40;99.90
25918;DHT22;13899;51.174;4.456;2022-08-25T06:47:47;23.70;99.90
25918;DHT22;13899;51.174;4.456;2022-08-25T06:50:14;24.00;99.90
25918;DHT22;13899;51.174;4.456;2022-08-25T06:52:40;24.10;99.90
25918;DHT22;13899;51.174;4.456;2022-08-25T06:55:07;24.20;99.90
25918;DHT22;13899;51.174;4.456;2022-08-25T06:57:33;24.30;99.90
25918;DHT22;13899;51.174;4.456;2022-08-25T07:00:01;24.20;99.90
25918;DHT22;13899;51.174;4.456;2022-08-25T07:02:34;24.20;99.90
25918;DHT22;13899;51.174;4.456;2022-08-25T07:05:00;24.40;99.90
25918;DHT22;13899;51.174;4.456;2022-08-25T07:07:26;24.50;99.90
25918;DHT22;13899;51.174;4.456;2022-08-25T07:09:57;24.40;99.90
25918;DHT22;13899;51.174;4.456;2022-08-25T07:12:24;24.60;99.90
25918;DHT22;13899;51.174;4.456;2022-08-25T07:14:50;24.70;99.90
25918;DHT22;13899;51.174;4.456;2022-08-25T07:17:16;25.00;99.90
25918;DHT22;13899;51.174;4.456;2022-08-25T07:19:41;25.10;99.90
25918;DHT22;13899;51.174;4.456;2022-08-25T07:22:07;25.00;99.90
25918;DHT22;13899;51.174;4.456;2022-08-25T07:24:33;25.30;99.90
25918;DHT22;13899;51.174;4.456;2022-08-25T07:26:58;25.30;99.90
25918;DHT22;13899;51.174;4.456;2022-08-25T07:29:26;25.10;99.90
25918;DHT22;13899;51.174;4.456;2022-08-25T07:31:53;24.80;99.90
25918;DHT22;13899;51.174;4.456;2022-08-25T07:34:19;24.60;99.90
25918;DHT22;13899;51.174;4.456;2022-08-25T07:37:03;24.80;99.90
25918;DHT22;13899;51.174;4.456;2022-08-25T07:39:30;24.90;99.90
25918;DHT22;13899;51.174;4.456;2022-08-25T07:41:56;25.10;99.90
25918;DHT22;13899;51.174;4.456;2022-08-25T07:44:22;25.00;99.90
25918;DHT22;13899;51.174;4.456;2022-08-25T07:47:10;25.10;99.90
25918;DHT22;13899;51.174;4.456;2022-08-25T07:49:37;25.20;99.90
25918;DHT22;13899;51.174;4.456;2022-08-25T07:52:06;25.30;99.90
25918;DHT22;13899;51.174;4.456;2022-08-25T07:54:33;25.40;99.90
25918;DHT22;13899;51.174;4.456;2022-08-25T07:56:59;25.10;99.90
25918;DHT22;13899;51.174;4.456;2022-08-25T07:59:46;24.80;99.90
25918;DHT22;13899;51.174;4.456;2022-08-25T08:02:12;24.70;99.90
25918;DHT22;13899;51.174;4.456;2022-08-25T08:04:38;24.70;99.90
25918;DHT22;13899;51.174;4.456;2022-08-25T08:07:04;24.70;99.90
25918;DHT22;13899;51.174;4.456;2022-08-25T08:09:33;25.10;99.90
25918;DHT22;13899;51.174;4.456;2022-08-25T08:11:58;25.30;99.90
25918;DHT22;13899;51.174;4.456;2022-08-25T08:14:24;25.40;99.90
25918;DHT22;13899;51.174;4.456;2022-08-25T08:16:50;25.70;99.90
25918;DHT22;13899;51.174;4.456;2022-08-25T08:19:37;26.00;99.90
25918;DHT22;13899;51.174;4.456;2022-08-25T08:22:06;26.20;99.90
25918;DHT22;13899;51.174;4.456;2022-08-25T08:25:26;26.00;99.90
25918;DHT22;13899;51.174;4.456;2022-08-25T08:28:16;25.80;99.90
25918;DHT22;13899;51.174;4.456;2022-08-25T08:31:47;25.60;99.90
25918;DHT22;13899;51.174;4.456;2022-08-25T08:34:34;25.80;99.90
25918;DHT22;13899;51.174;4.456;2022-08-25T08:36:59;26.10;99.90
25918;DHT22;13899;51.174;4.456;2022-08-25T08:39:26;25.90;99.90
25918;DHT22;13899;51.174;4.456;2022-08-25T08:55:34;26.40;99.90
25918;DHT22;13899;51.174;4.456;2022-08-25T09:00:51;26.70;99.90
25918;DHT22;13899;51.174;4.456;2022-08-25T09:05:54;27.50;99.90
25918;DHT22;13899;51.174;4.456;2022-08-25T09:08:20;28.40;99.90
25918;DHT22;13899;51.174;4.456;2022-08-25T09:11:11;28.80;99.90
25918;DHT22;13899;51.174;4.456;2022-08-25T09:14:06;28.70;99.90
25918;DHT22;13899;51.174;4.456;2022-08-25T09:26:04;32.70;99.50
25918;DHT22;13899;51.174;4.456;2022-08-25T09:28:34;32.50;95.90
25918;DHT22;13899;51.174;4.456;2022-08-25T09:31:25;32.50;94.60
25918;DHT22;13899;51.174;4.456;2022-08-25T09:34:38;32.60;93.70
25918;DHT22;13899;51.174;4.456;2022-08-25T09:38:29;32.70;92.90
25918;DHT22;13899;51.174;4.456;2022-08-25T09:41:55;32.00;92.30
25918;DHT22;13899;51.174;4.456;2022-08-25T10:02:26;36.40;76.30
25918;DHT22;13899;51.174;4.456;2022-08-25T10:04:55;37.30;72.90
25918;DHT22;13899;51.174;4.456;2022-08-25T10:07:50;36.90;66.80
25918;DHT22;13899;51.174;4.456;2022-08-25T10:10:58;36.40;68.00
25918;DHT22;13899;51.174;4.456;2022-08-25T10:13:49;37.90;64.60
25918;DHT22;13899;51.174;4.456;2022-08-25T10:16:44;36.50;63.70
25918;DHT22;13899;51.174;4.456;2022-08-25T10:22:03;37.60;58.50
25918;DHT22;13899;51.174;4.456;2022-08-25T10:25:26;36.20;59.70
25918;DHT22;13899;51.174;4.456;2022-08-25T10:28:25;36.20;63.90
25918;DHT22;13899;51.174;4.456;2022-08-25T10:33:55;38.40;58.10
25918;DHT22;13899;51.174;4.456;2022-08-25T10:39:44;38.90;57.00
25918;DHT22;13899;51.174;4.456;2022-08-25T11:08:13;37.90;47.30
25918;DHT22;13899;51.174;4.456;2022-08-25T11:13:21;37.60;48.90
25918;DHT22;13899;51.174;4.456;2022-08-25T11:19:19;38.90;46.90
25918;DHT22;13899;51.174;4.456;2022-08-25T11:25:59;40.10;44.50
25918;DHT22;13899;51.174;4.456;2022-08-25T11:29:33;41.50;44.60
25918;DHT22;13899;51.174;4.456;2022-08-25T11:32:20;42.40;45.30
25918;DHT22;13899;51.174;4.456;2022-08-25T11:35:11;42.60;43.10
25918;DHT22;13899;51.174;4.456;2022-08-25T11:38:05;42.10;42.70
25918;DHT22;13899;51.174;4.456;2022-08-25T11:49:27;40.90;40.50
25918;DHT22;13899;51.174;4.456;2022-08-25T11:52:41;40.80;41.70
25918;DHT22;13899;51.174;4.456;2022-08-25T11:57:46;42.00;40.60
25918;DHT22;13899;51.174;4.456;2022-08-25T12:06:31;44.40;40.00
25918;DHT22;13899;51.174;4.456;2022-08-25T12:09:18;44.50;39.00
25918;DHT22;13899;51.174;4.456;2022-08-25T12:11:53;43.80;38.30
25918;DHT22;13899;51.174;4.456;2022-08-25T12:22:38;43.70;38.00
25918;DHT22;13899;51.174;4.456;2022-08-25T12:25:30;44.60;38.00
25918;DHT22;13899;51.174;4.456;2022-08-25T12:28:44;43.50;37.70
25918;DHT22;13899;51.174;4.456;2022-08-25T12:38:17;47.20;36.90
25918;DHT22;13899;51.174;4.456;2022-08-25T12:41:09;46.00;37.10
25918;DHT22;13899;51.174;4.456;2022-08-25T12:43:42;45.70;36.30
25918;DHT22;13899;51.174;4.456;2022-08-25T12:46:31;46.90;36.10
25918;DHT22;13899;51.174;4.456;2022-08-25T12:49:42;47.00;35.00
25918;DHT22;13899;51.174;4.456;2022-08-25T12:52:16;48.40;34.70
25918;DHT22;13899;51.174;4.456;2022-08-25T12:54:51;47.40;34.60
25918;DHT22;13899;51.174;4.456;2022-08-25T12:59:55;44.70;36.20
25918;DHT22;13899;51.174;4.456;2022-08-25T13:10:54;43.80;35.80
25918;DHT22;13899;51.174;4.456;2022-08-25T13:16:26;43.90;36.20
25918;DHT22;13899;51.174;4.456;2022-08-25T13:18:54;41.90;36.90
25918;DHT22;13899;51.174;4.456;2022-08-25T13:21:36;41.00;38.00
25918;DHT22;13899;51.174;4.456;2022-08-25T13:24:05;40.70;38.20
25918;DHT22;13899;51.174;4.456;2022-08-25T13:26:36;40.30;39.00
25918;DHT22;13899;51.174;4.456;2022-08-25T13:31:34;40.40;42.00
25918;DHT22;13899;51.174;4.456;2022-08-25T13:34:02;39.10;46.00
25918;DHT22;13899;51.174;4.456;2022-08-25T13:36:30;38.50;46.60
25918;DHT22;13899;51.174;4.456;2022-08-25T13:39:20;38.00;47.70
25918;DHT22;13899;51.174;4.456;2022-08-25T13:41:49;37.70;48.50
25918;DHT22;13899;51.174;4.456;2022-08-25T13:44:16;37.40;49.40
25918;DHT22;13899;51.174;4.456;2022-08-25T13:46:42;36.90;50.30
25918;DHT22;13899;51.174;4.456;2022-08-25T13:49:10;36.50;51.10
25918;DHT22;13899;51.174;4.456;2022-08-25T13:51:37;36.90;51.60
25918;DHT22;13899;51.174;4.456;2022-08-25T13:54:18;37.90;51.10
25918;DHT22;13899;51.174;4.456;2022-08-25T13:56:46;38.10;51.30
25918;DHT22;13899;51.174;4.456;2022-08-25T13:59:22;39.10;50.60
25918;DHT22;13899;51.174;4.456;2022-08-25T14:01:50;40.70;49.40
25918;DHT22;13899;51.174;4.456;2022-08-25T14:04:21;39.90;49.40
25918;DHT22;13899;51.174;4.456;2022-08-25T14:06:47;39.40;50.40
25918;DHT22;13899;51.174;4.456;2022-08-25T14:09:15;39.90;50.10
25918;DHT22;13899;51.174;4.456;2022-08-25T14:11:47;39.90;50.40
25918;DHT22;13899;51.174;4.456;2022-08-25T14:19:26;38.70;51.10
25918;DHT22;13899;51.174;4.456;2022-08-25T14:21:52;38.60;52.00
25918;DHT22;13899;51.174;4.456;2022-08-25T14:24:21;39.50;51.30
25918;DHT22;13899;51.174;4.456;2022-08-25T14:26:48;40.50;49.70
25918;DHT22;13899;51.174;4.456;2022-08-25T14:29:14;41.70;48.10
25918;DHT22;13899;51.174;4.456;2022-08-25T14:31:43;41.60;47.40
25918;DHT22;13899;51.174;4.456;2022-08-25T14:34:14;40.40;48.10
25918;DHT22;13899;51.174;4.456;2022-08-25T14:36:41;39.40;49.40
25918;DHT22;13899;51.174;4.456;2022-08-25T14:39:07;38.50;50.10
25918;DHT22;13899;51.174;4.456;2022-08-25T14:41:35;38.10;50.60
25918;DHT22;13899;51.174;4.456;2022-08-25T14:44:02;37.50;51.60
25918;DHT22;13899;51.174;4.456;2022-08-25T14:46:31;37.20;52.30
25918;DHT22;13899;51.174;4.456;2022-08-25T14:49:00;37.10;52.10
25918;DHT22;13899;51.174;4.456;2022-08-25T14:51:28;37.60;52.10
25918;DHT22;13899;51.174;4.456;2022-08-25T14:53:59;38.30;51.60
25918;DHT22;13899;51.174;4.456;2022-08-25T14:56:27;39.40;50.40
25918;DHT22;13899;51.174;4.456;2022-08-25T14:58:52;39.50;49.50
25918;DHT22;13899;51.174;4.456;2022-08-25T15:01:20;39.00;48.80
25918;DHT22;13899;51.174;4.456;2022-08-25T15:03:47;38.20;49.30
25918;DHT22;13899;51.174;4.456;2022-08-25T15:06:16;37.60;50.50
25918;DHT22;13899;51.174;4.456;2022-08-25T15:08:43;37.30;52.60
25918;DHT22;13899;51.174;4.456;2022-08-25T15:11:28;36.50;55.00
25918;DHT22;13899;51.174;4.456;2022-08-25T15:13:55;35.60;57.60
25918;DHT22;13899;51.174;4.456;2022-08-25T15:16:29;35.30;59.30
25918;DHT22;13899;51.174;4.456;2022-08-25T15:18:55;35.10;60.60
25918;DHT22;13899;51.174;4.456;2022-08-25T15:21:21;35.20;62.00
25918;DHT22;13899;51.174;4.456;2022-08-25T15:23:47;34.70;62.60
25918;DHT22;13899;51.174;4.456;2022-08-25T15:26:13;34.80;63.20
25918;DHT22;13899;51.174;4.456;2022-08-25T15:28:42;34.60;61.60
25918;DHT22;13899;51.174;4.456;2022-08-25T15:31:10;34.30;61.50
25918;DHT22;13899;51.174;4.456;2022-08-25T15:33:38;33.60;63.40
25918;DHT22;13899;51.174;4.456;2022-08-25T15:36:13;33.50;65.40
25918;DHT22;13899;51.174;4.456;2022-08-25T15:38:45;33.70;67.60
25918;DHT22;13899;51.174;4.456;2022-08-25T15:41:11;33.70;71.60
25918;DHT22;13899;51.174;4.456;2022-08-25T15:43:37;33.40;75.50
25918;DHT22;13899;51.174;4.456;2022-08-25T15:46:04;33.30;77.50
25918;DHT22;13899;51.174;4.456;2022-08-25T15:48:33;33.40;80.10
25918;DHT22;13899;51.174;4.456;2022-08-25T15:51:00;33.30;82.70
25918;DHT22;13899;51.174;4.456;2022-08-25T15:53:27;33.20;85.10
25918;DHT22;13899;51.174;4.456;2022-08-25T15:55:54;33.10;88.30
25918;DHT22;13899;51.174;4.456;2022-08-25T15:58:21;33.20;90.40
25918;DHT22;13899;51.174;4.456;2022-08-25T16:00:47;33.00;91.50
25918;DHT22;13899;51.174;4.456;2022-08-25T16:03:13;32.70;93.10
25918;DHT22;13899;51.174;4.456;2022-08-25T16:05:40;32.60;93.80
25918;DHT22;13899;51.174;4.456;2022-08-25T16:08:07;32.20;95.00
25918;DHT22;13899;51.174;4.456;2022-08-25T16:10:34;31.70;97.40
25918;DHT22;13899;51.174;4.456;2022-08-25T16:13:00;31.40;99.90
25918;DHT22;13899;51.174;4.456;2022-08-25T16:15:27;31.20;99.90
25918;DHT22;13899;51.174;4.456;2022-08-25T16:17:53;31.20;99.90
25918;DHT22;13899;51.174;4.456;2022-08-25T16:20:19;31.10;99.90
25918;DHT22;13899;51.174;4.456;2022-08-25T16:22:45;31.10;99.90
25918;DHT22;13899;51.174;4.456;2022-08-25T16:25:12;30.80;99.90
25918;DHT22;13899;51.174;4.456;2022-08-25T16:27:40;30.70;99.90
25918;DHT22;13899;51.174;4.456;2022-08-25T16:30:22;30.50;99.90
25918;DHT22;13899;51.174;4.456;2022-08-25T16:32:49;30.50;99.90
25918;DHT22;13899;51.174;4.456;2022-08-25T16:35:15;30.50;99.90
25918;DHT22;13899;51.174;4.456;2022-08-25T16:37:42;30.50;99.90
25918;DHT22;13899;51.174;4.456;2022-08-25T16:40:14;30.60;99.90
25918;DHT22;13899;51.174;4.456;2022-08-25T16:43:06;30.60;99.90
25918;DHT22;13899;51.174;4.456;2022-08-25T16:46:01;30.70;99.90
25918;DHT22;13899;51.174;4.456;2022-08-25T16:49:15;30.40;99.90
25918;DHT22;13899;51.174;4.456;2022-08-25T16:51:42;30.10;99.90
25918;DHT22;13899;51.174;4.456;2022-08-25T16:54:16;30.10;99.90
25918;DHT22;13899;51.174;4.456;2022-08-25T16:57:17;30.00;99.90
25918;DHT22;13899;51.174;4.456;2022-08-25T16:59:52;29.80;99.90
25918;DHT22;13899;51.174;4.456;2022-08-25T17:02:33;29.70;99.90
25918;DHT22;13899;51.174;4.456;2022-08-25T17:05:03;29.70;99.90
25918;DHT22;13899;51.174;4.456;2022-08-25T17:08:03;29.70;99.90
25918;DHT22;13899;51.174;4.456;2022-08-25T17:10:52;29.70;99.90
25918;DHT22;13899;51.174;4.456;2022-08-25T17:14:17;29.60;99.90
25918;DHT22;13899;51.174;4.456;2022-08-25T17:17:20;29.50;99.90
25918;DHT22;13899;51.174;4.456;2022-08-25T17:19:50;29.20;99.90
25918;DHT22;13899;51.174;4.456;2022-08-25T17:22:16;29.10;99.90
25918;DHT22;13899;51.174;4.456;2022-08-25T17:24:42;28.90;99.90
25918;DHT22;13899;51.174;4.456;2022-08-25T17:27:38;28.70;99.90
25918;DHT22;13899;51.174;4.456;2022-08-25T17:30:29;28.70;99.90
25918;DHT22;13899;51.174;4.456;2022-08-25T17:33:24;28.50;99.90
25918;DHT22;13899;51.174;4.456;2022-08-25T17:36:13;28.50;99.90
25918;DHT22;13899;51.174;4.456;2022-08-25T17:38:40;28.30;99.90
25918;DHT22;13899;51.174;4.456;2022-08-25T17:41:20;27.90;99.90
25918;DHT22;13899;51.174;4.456;2022-08-25T17:43:50;28.00;99.90
25918;DHT22;13899;51.174;4.456;2022-08-25T17:46:15;27.90;99.90
25918;DHT22;13899;51.174;4.456;2022-08-25T17:48:42;27.80;99.90
25918;DHT22;13899;51.174;4.456;2022-08-25T17:51:08;27.90;99.90
25918;DHT22;13899;51.174;4.456;2022-08-25T17:53:35;27.70;99.90
25918;DHT22;13899;51.174;4.456;2022-08-25T17:56:07;27.60;99.90
25918;DHT22;13899;51.174;4.456;2022-08-25T17:58:33;27.50;99.90
25918;DHT22;13899;51.174;4.456;2022-08-25T18:01:27;27.30;99.90
25918;DHT22;13899;51.174;4.456;2022-08-25T18:03:53;27.10;99.90
25918;DHT22;13899;51.174;4.456;2022-08-25T18:06:20;27.00;99.90
25918;DHT22;13899;51.174;4.456;2022-08-25T18:08:48;27.10;99.90
25918;DHT22;13899;51.174;4.456;2022-08-25T18:11:15;27.00;99.90
25918;DHT22;13899;51.174;4.456;2022-08-25T18:13:44;26.90;99.90
25918;DHT22;13899;51.174;4.456;2022-08-25T18:16:12;26.80;99.90
25918;DHT22;13899;51.174;4.456;2022-08-25T18:18:58;26.90;99.90
25918;DHT22;13899;51.174;4.456;2022-08-25T18:21:25;26.90;99.90
25918;DHT22;13899;51.174;4.456;2022-08-25T18:23:52;26.50;99.90
25918;DHT22;13899;51.174;4.456;2022-08-25T18:26:21;26.40;99.90
25918;DHT22;13899;51.174;4.456;2022-08-25T18:28:46;26.40;99.90
25918;DHT22;13899;51.174;4.456;2022-08-25T18:31:12;26.10;99.90